KVTN/VTN METAR and TAF weather

Enter ICAO airport designator
Station Type Date Time Source
KVTN METAR 2021/09/28 03:52 UTC NOAA

KVTN 280352Z AUTO 16013KT 10SM CLR 24/10 A2985 RMK AO2 SLP086 T02390100


Station Type Date Time Source
KVTN Decoded METAR 2021/09/28 03:52 UTC NOAA

MILLER FIELD - VALENTINE, NE, NE, United States (KVTN) 42-52N 100-33W 788M
Sep 27, 2021 - 11:52 PM EDT / 2021.09.28 0352 UTC
Wind: from the SSE (160 degrees) at 15 MPH (13 KT):0
Visibility: 10 mile(s):0
Sky conditions: clear
Temperature: 75.0 F (23.9 C)
Dew Point: 50.0 F (10.0 C)
Relative Humidity: 41%
Pressure (altimeter): 29.85 in. Hg (1010 hPa)
ob: KVTN 280352Z AUTO 16013KT 10SM CLR 24/10 A2985 RMK AO2 SLP086 T02390100
cycle: 4

Station Type Date Time Source
KVTN TAF 2021/09/27 18:22 UTC NOAA

TAF KVTN 271720Z 2718/2818 17008KT P6SM SKC
FM272300 15011KT P6SM SKC
FM281200 17007KT P6SM SKC
FM281700 16013G20KT P6SM SKC

Example: see airport list